New Berlin, Illinois
Current Conditions -  °F | °C
As of 9:04 AM on Friday 24 Oct 2014 (Local Time) from KSPI Reporting Station
Moderate Fog Moderate Fog  
Wind Chill: 54°   Ceiling: 200
Heat Index: 54°   Visibility: 0.25mi
Dew Point: 53°   Wind: 5mph
Humidity: 97%   Direction: 280°W
Pressure: 30.11"   Gusts: NA
Location:  39.73°N, 89.91°W
Report Text: KSPI 241404Z 28004KT 1/4SM R04/1800V2400FT FG VV002 12/12 A3011 RMK AO2 T01220117
Loading
Personal Weather Stations






























Interactive Weather Map
Tropical Storm Tracking
New forecast layout! Learn more

10-Day Weather Forecast

Advertisements
Track Severe Weather on mobile